sensor_id;sensor_type;location;lat;lon;timestamp;temperature;humidity
528;DHT22;250;47.712;7.508;2022-08-19T00:00:17;20.70;55.20
528;DHT22;250;47.712;7.508;2022-08-19T00:02:44;20.80;55.20
528;DHT22;250;47.712;7.508;2022-08-19T00:05:14;20.70;55.30
528;DHT22;250;47.712;7.508;2022-08-19T00:07:42;20.50;55.50
528;DHT22;250;47.712;7.508;2022-08-19T00:10:13;20.50;56.40
528;DHT22;250;47.712;7.508;2022-08-19T00:12:41;20.60;55.10
528;DHT22;250;47.712;7.508;2022-08-19T00:15:11;20.60;55.70
528;DHT22;250;47.712;7.508;2022-08-19T00:17:40;20.50;55.70
528;DHT22;250;47.712;7.508;2022-08-19T00:20:09;20.50;56.20
528;DHT22;250;47.712;7.508;2022-08-19T00:22:37;20.60;56.40
528;DHT22;250;47.712;7.508;2022-08-19T00:25:07;20.60;55.90
528;DHT22;250;47.712;7.508;2022-08-19T00:27:35;20.60;56.40
528;DHT22;250;47.712;7.508;2022-08-19T00:30:04;20.60;56.80
528;DHT22;250;47.712;7.508;2022-08-19T00:32:31;20.60;57.70
528;DHT22;250;47.712;7.508;2022-08-19T00:35:00;20.60;58.70
528;DHT22;250;47.712;7.508;2022-08-19T00:37:27;20.60;58.70
528;DHT22;250;47.712;7.508;2022-08-19T00:39:54;20.70;57.10
528;DHT22;250;47.712;7.508;2022-08-19T00:42:22;20.70;56.30
528;DHT22;250;47.712;7.508;2022-08-19T00:44:50;20.70;55.90
528;DHT22;250;47.712;7.508;2022-08-19T00:47:17;20.60;56.90
528;DHT22;250;47.712;7.508;2022-08-19T00:49:48;20.60;56.90
528;DHT22;250;47.712;7.508;2022-08-19T00:52:20;20.70;56.50
528;DHT22;250;47.712;7.508;2022-08-19T00:54:48;20.60;57.10
528;DHT22;250;47.712;7.508;2022-08-19T00:57:18;20.60;56.80
528;DHT22;250;47.712;7.508;2022-08-19T00:59:52;20.60;57.10
528;DHT22;250;47.712;7.508;2022-08-19T01:02:21;20.60;56.20
528;DHT22;250;47.712;7.508;2022-08-19T01:04:48;20.70;56.70
528;DHT22;250;47.712;7.508;2022-08-19T01:07:15;20.60;57.10
528;DHT22;250;47.712;7.508;2022-08-19T01:09:42;20.70;57.20
528;DHT22;250;47.712;7.508;2022-08-19T01:12:09;20.70;57.20
528;DHT22;250;47.712;7.508;2022-08-19T01:14:38;20.70;57.00
528;DHT22;250;47.712;7.508;2022-08-19T01:17:07;20.70;56.60
528;DHT22;250;47.712;7.508;2022-08-19T01:19:37;20.70;56.80
528;DHT22;250;47.712;7.508;2022-08-19T01:22:11;20.70;57.10
528;DHT22;250;47.712;7.508;2022-08-19T01:24:41;20.70;56.90
528;DHT22;250;47.712;7.508;2022-08-19T01:27:08;20.70;57.50
528;DHT22;250;47.712;7.508;2022-08-19T01:29:38;20.70;57.50
528;DHT22;250;47.712;7.508;2022-08-19T01:32:07;20.80;56.90
528;DHT22;250;47.712;7.508;2022-08-19T01:34:34;20.80;56.40
528;DHT22;250;47.712;7.508;2022-08-19T01:37:07;20.80;56.60
528;DHT22;250;47.712;7.508;2022-08-19T01:39:37;20.80;55.80
528;DHT22;250;47.712;7.508;2022-08-19T01:42:06;20.80;56.20
528;DHT22;250;47.712;7.508;2022-08-19T01:44:35;20.70;56.90
528;DHT22;250;47.712;7.508;2022-08-19T01:47:03;20.70;58.30
528;DHT22;250;47.712;7.508;2022-08-19T01:49:30;20.70;58.50
528;DHT22;250;47.712;7.508;2022-08-19T01:52:00;20.60;58.70
528;DHT22;250;47.712;7.508;2022-08-19T01:54:27;20.60;58.70
528;DHT22;250;47.712;7.508;2022-08-19T01:56:57;20.60;58.70
528;DHT22;250;47.712;7.508;2022-08-19T01:59:28;20.70;57.70
528;DHT22;250;47.712;7.508;2022-08-19T02:01:55;20.70;58.30
528;DHT22;250;47.712;7.508;2022-08-19T02:04:22;20.70;56.70
528;DHT22;250;47.712;7.508;2022-08-19T02:06:51;20.70;56.80
528;DHT22;250;47.712;7.508;2022-08-19T02:09:18;20.70;57.00
528;DHT22;250;47.712;7.508;2022-08-19T02:11:45;20.70;57.40
528;DHT22;250;47.712;7.508;2022-08-19T02:14:12;20.70;57.30
528;DHT22;250;47.712;7.508;2022-08-19T02:16:40;20.70;57.10
528;DHT22;250;47.712;7.508;2022-08-19T02:19:07;20.70;57.80
528;DHT22;250;47.712;7.508;2022-08-19T02:21:36;20.70;58.70
528;DHT22;250;47.712;7.508;2022-08-19T02:24:04;20.70;58.80
528;DHT22;250;47.712;7.508;2022-08-19T02:26:32;20.70;57.70
528;DHT22;250;47.712;7.508;2022-08-19T02:28:59;20.70;56.90
528;DHT22;250;47.712;7.508;2022-08-19T02:31:26;20.70;56.90
528;DHT22;250;47.712;7.508;2022-08-19T02:33:56;20.70;56.80
528;DHT22;250;47.712;7.508;2022-08-19T02:36:24;20.60;57.10
528;DHT22;250;47.712;7.508;2022-08-19T02:38:53;20.60;57.70
528;DHT22;250;47.712;7.508;2022-08-19T02:41:22;20.60;57.60
528;DHT22;250;47.712;7.508;2022-08-19T02:43:50;20.60;58.00
528;DHT22;250;47.712;7.508;2022-08-19T02:46:18;20.50;58.00
528;DHT22;250;47.712;7.508;2022-08-19T02:48:47;20.50;58.60
528;DHT22;250;47.712;7.508;2022-08-19T02:51:20;20.50;58.80
528;DHT22;250;47.712;7.508;2022-08-19T02:53:47;20.50;58.60
528;DHT22;250;47.712;7.508;2022-08-19T02:56:15;20.50;58.60
528;DHT22;250;47.712;7.508;2022-08-19T02:58:42;20.50;57.80
528;DHT22;250;47.712;7.508;2022-08-19T03:01:10;20.60;57.80
528;DHT22;250;47.712;7.508;2022-08-19T03:03:38;20.60;58.10
528;DHT22;250;47.712;7.508;2022-08-19T03:06:08;20.60;58.00
528;DHT22;250;47.712;7.508;2022-08-19T03:08:37;20.60;58.00
528;DHT22;250;47.712;7.508;2022-08-19T03:11:05;20.50;57.80
528;DHT22;250;47.712;7.508;2022-08-19T03:13:32;20.50;57.30
528;DHT22;250;47.712;7.508;2022-08-19T03:15:59;20.50;57.30
528;DHT22;250;47.712;7.508;2022-08-19T03:18:26;20.50;57.80
528;DHT22;250;47.712;7.508;2022-08-19T03:20:53;20.50;58.20
528;DHT22;250;47.712;7.508;2022-08-19T03:23:22;20.50;58.50
528;DHT22;250;47.712;7.508;2022-08-19T03:25:51;20.50;58.60
528;DHT22;250;47.712;7.508;2022-08-19T03:28:20;20.50;58.60
528;DHT22;250;47.712;7.508;2022-08-19T03:31:00;20.50;57.90
528;DHT22;250;47.712;7.508;2022-08-19T03:33:27;20.50;58.40
528;DHT22;250;47.712;7.508;2022-08-19T03:36:07;20.50;57.80
528;DHT22;250;47.712;7.508;2022-08-19T03:38:36;20.50;57.00
528;DHT22;250;47.712;7.508;2022-08-19T03:41:06;20.40;57.40
528;DHT22;250;47.712;7.508;2022-08-19T03:43:34;20.40;56.70
528;DHT22;250;47.712;7.508;2022-08-19T03:46:03;20.40;57.40
528;DHT22;250;47.712;7.508;2022-08-19T03:48:31;20.40;57.30
528;DHT22;250;47.712;7.508;2022-08-19T03:50:58;20.40;56.40
528;DHT22;250;47.712;7.508;2022-08-19T03:53:26;20.30;55.90
528;DHT22;250;47.712;7.508;2022-08-19T03:55:53;20.30;57.20
528;DHT22;250;47.712;7.508;2022-08-19T03:58:22;20.30;57.40
528;DHT22;250;47.712;7.508;2022-08-19T04:00:49;20.30;57.10
528;DHT22;250;47.712;7.508;2022-08-19T04:03:17;20.30;56.00
528;DHT22;250;47.712;7.508;2022-08-19T04:05:45;20.30;55.00
528;DHT22;250;47.712;7.508;2022-08-19T04:08:13;20.30;55.30
528;DHT22;250;47.712;7.508;2022-08-19T04:10:46;20.30;54.80
528;DHT22;250;47.712;7.508;2022-08-19T04:13:13;20.30;55.10
528;DHT22;250;47.712;7.508;2022-08-19T04:15:44;20.30;53.80
528;DHT22;250;47.712;7.508;2022-08-19T04:18:12;20.30;53.80
528;DHT22;250;47.712;7.508;2022-08-19T04:20:43;20.30;54.40
528;DHT22;250;47.712;7.508;2022-08-19T04:23:11;20.30;54.70
528;DHT22;250;47.712;7.508;2022-08-19T04:25:41;20.30;53.90
528;DHT22;250;47.712;7.508;2022-08-19T04:28:10;20.30;53.80
528;DHT22;250;47.712;7.508;2022-08-19T04:30:39;20.20;54.30
528;DHT22;250;47.712;7.508;2022-08-19T04:33:08;20.20;55.30
528;DHT22;250;47.712;7.508;2022-08-19T04:35:37;20.30;54.80
528;DHT22;250;47.712;7.508;2022-08-19T04:38:05;20.30;53.80
528;DHT22;250;47.712;7.508;2022-08-19T04:40:32;20.30;53.80
528;DHT22;250;47.712;7.508;2022-08-19T04:43:17;20.20;53.70
528;DHT22;250;47.712;7.508;2022-08-19T04:45:44;20.20;54.20
528;DHT22;250;47.712;7.508;2022-08-19T04:48:14;20.20;53.70
528;DHT22;250;47.712;7.508;2022-08-19T04:50:43;20.20;53.70
528;DHT22;250;47.712;7.508;2022-08-19T04:53:11;20.20;54.20
528;DHT22;250;47.712;7.508;2022-08-19T04:55:41;20.20;54.20
528;DHT22;250;47.712;7.508;2022-08-19T04:58:08;20.20;54.10
528;DHT22;250;47.712;7.508;2022-08-19T05:00:38;20.20;53.70
528;DHT22;250;47.712;7.508;2022-08-19T05:03:05;20.20;53.70
528;DHT22;250;47.712;7.508;2022-08-19T05:05:37;20.20;54.30
528;DHT22;250;47.712;7.508;2022-08-19T05:08:04;20.20;53.70
528;DHT22;250;47.712;7.508;2022-08-19T05:10:31;20.20;54.90
528;DHT22;250;47.712;7.508;2022-08-19T05:13:01;20.30;53.80
528;DHT22;250;47.712;7.508;2022-08-19T05:15:28;20.30;53.80
528;DHT22;250;47.712;7.508;2022-08-19T05:17:55;20.20;54.50
528;DHT22;250;47.712;7.508;2022-08-19T05:20:40;20.30;53.80
528;DHT22;250;47.712;7.508;2022-08-19T05:23:25;20.30;53.60
528;DHT22;250;47.712;7.508;2022-08-19T05:25:52;20.30;54.30
528;DHT22;250;47.712;7.508;2022-08-19T05:28:20;20.30;54.20
528;DHT22;250;47.712;7.508;2022-08-19T05:30:47;20.40;53.80
528;DHT22;250;47.712;7.508;2022-08-19T05:33:16;20.40;53.80
528;DHT22;250;47.712;7.508;2022-08-19T05:35:45;20.40;53.80
528;DHT22;250;47.712;7.508;2022-08-19T05:38:13;20.40;53.80
528;DHT22;250;47.712;7.508;2022-08-19T05:40:41;20.40;53.80
528;DHT22;250;47.712;7.508;2022-08-19T05:43:13;20.40;53.80
528;DHT22;250;47.712;7.508;2022-08-19T05:45:42;20.40;53.90
528;DHT22;250;47.712;7.508;2022-08-19T05:48:10;20.40;54.70
528;DHT22;250;47.712;7.508;2022-08-19T05:50:38;20.40;54.80
528;DHT22;250;47.712;7.508;2022-08-19T05:53:07;20.40;54.60
528;DHT22;250;47.712;7.508;2022-08-19T05:55:35;20.40;54.70
528;DHT22;250;47.712;7.508;2022-08-19T05:58:03;20.40;55.50
528;DHT22;250;47.712;7.508;2022-08-19T06:00:33;20.40;55.60
528;DHT22;250;47.712;7.508;2022-08-19T06:03:00;20.50;55.70
528;DHT22;250;47.712;7.508;2022-08-19T06:05:29;20.40;56.00
528;DHT22;250;47.712;7.508;2022-08-19T06:07:56;20.40;56.90
528;DHT22;250;47.712;7.508;2022-08-19T06:10:26;20.50;56.60
528;DHT22;250;47.712;7.508;2022-08-19T06:12:54;20.40;57.00
528;DHT22;250;47.712;7.508;2022-08-19T06:15:21;20.40;58.10
528;DHT22;250;47.712;7.508;2022-08-19T06:17:54;20.50;57.90
528;DHT22;250;47.712;7.508;2022-08-19T06:20:21;20.50;57.70
528;DHT22;250;47.712;7.508;2022-08-19T06:22:49;20.60;57.40
528;DHT22;250;47.712;7.508;2022-08-19T06:25:17;20.60;57.30
528;DHT22;250;47.712;7.508;2022-08-19T06:27:46;20.70;56.50
528;DHT22;250;47.712;7.508;2022-08-19T06:30:13;20.70;56.50
528;DHT22;250;47.712;7.508;2022-08-19T06:32:40;20.70;57.70
528;DHT22;250;47.712;7.508;2022-08-19T06:35:08;20.80;56.90
528;DHT22;250;47.712;7.508;2022-08-19T06:37:36;20.70;57.10
528;DHT22;250;47.712;7.508;2022-08-19T06:40:04;20.80;57.10
528;DHT22;250;47.712;7.508;2022-08-19T06:42:31;20.80;57.60
528;DHT22;250;47.712;7.508;2022-08-19T06:45:00;20.80;57.00
528;DHT22;250;47.712;7.508;2022-08-19T06:47:29;20.70;58.80
528;DHT22;250;47.712;7.508;2022-08-19T06:49:57;20.70;59.70
528;DHT22;250;47.712;7.508;2022-08-19T06:52:27;20.80;58.90
528;DHT22;250;47.712;7.508;2022-08-19T06:54:54;20.80;58.90
528;DHT22;250;47.712;7.508;2022-08-19T06:57:22;20.90;57.80
528;DHT22;250;47.712;7.508;2022-08-19T06:59:49;21.00;57.10
528;DHT22;250;47.712;7.508;2022-08-19T07:02:18;21.00;57.00
528;DHT22;250;47.712;7.508;2022-08-19T07:04:46;21.00;55.70
528;DHT22;250;47.712;7.508;2022-08-19T07:07:14;21.00;56.30
528;DHT22;250;47.712;7.508;2022-08-19T07:09:43;21.00;57.20
528;DHT22;250;47.712;7.508;2022-08-19T07:12:12;21.00;56.80
528;DHT22;250;47.712;7.508;2022-08-19T07:14:41;21.00;57.70
528;DHT22;250;47.712;7.508;2022-08-19T07:17:10;21.10;56.80
528;DHT22;250;47.712;7.508;2022-08-19T07:19:39;21.10;57.10
528;DHT22;250;47.712;7.508;2022-08-19T07:22:09;21.00;58.40
528;DHT22;250;47.712;7.508;2022-08-19T07:24:37;21.00;59.10
528;DHT22;250;47.712;7.508;2022-08-19T07:27:05;21.00;59.10
528;DHT22;250;47.712;7.508;2022-08-19T07:29:34;21.00;59.80
528;DHT22;250;47.712;7.508;2022-08-19T07:32:03;21.00;59.50
528;DHT22;250;47.712;7.508;2022-08-19T07:34:31;21.10;60.00
528;DHT22;250;47.712;7.508;2022-08-19T07:37:02;21.20;59.60
528;DHT22;250;47.712;7.508;2022-08-19T07:39:32;21.20;60.40
528;DHT22;250;47.712;7.508;2022-08-19T07:42:03;21.20;61.60
528;DHT22;250;47.712;7.508;2022-08-19T07:44:32;21.20;61.20
528;DHT22;250;47.712;7.508;2022-08-19T07:47:00;21.30;61.40
528;DHT22;250;47.712;7.508;2022-08-19T07:49:27;21.30;62.10
528;DHT22;250;47.712;7.508;2022-08-19T07:51:56;21.40;61.60
528;DHT22;250;47.712;7.508;2022-08-19T07:54:26;21.40;60.30
528;DHT22;250;47.712;7.508;2022-08-19T07:56:54;21.40;61.30
528;DHT22;250;47.712;7.508;2022-08-19T07:59:23;21.40;60.70
528;DHT22;250;47.712;7.508;2022-08-19T08:01:51;21.50;61.60
528;DHT22;250;47.712;7.508;2022-08-19T08:04:19;21.50;61.20
528;DHT22;250;47.712;7.508;2022-08-19T08:07:05;21.50;59.60
528;DHT22;250;47.712;7.508;2022-08-19T08:09:51;21.50;59.60
528;DHT22;250;47.712;7.508;2022-08-19T08:12:25;21.50;58.50
528;DHT22;250;47.712;7.508;2022-08-19T08:14:56;21.50;58.40
528;DHT22;250;47.712;7.508;2022-08-19T08:17:25;21.50;59.60
528;DHT22;250;47.712;7.508;2022-08-19T08:19:52;21.50;60.50
528;DHT22;250;47.712;7.508;2022-08-19T08:22:21;21.60;59.70
528;DHT22;250;47.712;7.508;2022-08-19T08:25:09;21.60;58.70
528;DHT22;250;47.712;7.508;2022-08-19T08:27:37;21.50;58.40
528;DHT22;250;47.712;7.508;2022-08-19T08:30:07;21.60;59.70
528;DHT22;250;47.712;7.508;2022-08-19T08:32:36;21.70;58.80
528;DHT22;250;47.712;7.508;2022-08-19T08:35:04;21.70;57.10
528;DHT22;250;47.712;7.508;2022-08-19T08:37:31;21.70;57.90
528;DHT22;250;47.712;7.508;2022-08-19T08:39:58;21.80;57.20
528;DHT22;250;47.712;7.508;2022-08-19T08:42:31;21.90;56.00
528;DHT22;250;47.712;7.508;2022-08-19T08:45:03;21.90;56.60
528;DHT22;250;47.712;7.508;2022-08-19T08:47:38;21.90;55.90
528;DHT22;250;47.712;7.508;2022-08-19T08:50:09;21.90;55.20
528;DHT22;250;47.712;7.508;2022-08-19T08:52:44;22.00;56.40
528;DHT22;250;47.712;7.508;2022-08-19T08:55:16;21.90;54.00
528;DHT22;250;47.712;7.508;2022-08-19T08:57:51;21.90;53.60
528;DHT22;250;47.712;7.508;2022-08-19T09:00:25;22.00;54.60
528;DHT22;250;47.712;7.508;2022-08-19T09:02:53;22.10;53.70
528;DHT22;250;47.712;7.508;2022-08-19T09:05:21;22.10;51.90
528;DHT22;250;47.712;7.508;2022-08-19T09:07:55;22.10;53.70
528;DHT22;250;47.712;7.508;2022-08-19T09:10:29;22.10;52.60
528;DHT22;250;47.712;7.508;2022-08-19T09:13:07;22.10;53.10
528;DHT22;250;47.712;7.508;2022-08-19T09:15:42;22.10;53.80
528;DHT22;250;47.712;7.508;2022-08-19T09:18:11;22.20;53.60
528;DHT22;250;47.712;7.508;2022-08-19T09:20:38;22.20;52.30
528;DHT22;250;47.712;7.508;2022-08-19T09:23:05;22.20;50.70
528;DHT22;250;47.712;7.508;2022-08-19T09:25:34;22.20;50.40
528;DHT22;250;47.712;7.508;2022-08-19T09:28:02;22.20;50.70
528;DHT22;250;47.712;7.508;2022-08-19T09:30:32;22.10;50.60
528;DHT22;250;47.712;7.508;2022-08-19T09:32:59;22.20;49.50
528;DHT22;250;47.712;7.508;2022-08-19T09:35:28;22.20;49.20
528;DHT22;250;47.712;7.508;2022-08-19T09:37:57;22.20;49.00
528;DHT22;250;47.712;7.508;2022-08-19T09:40:24;22.10;49.00
528;DHT22;250;47.712;7.508;2022-08-19T09:42:52;22.20;48.90
528;DHT22;250;47.712;7.508;2022-08-19T09:45:22;22.20;49.70
528;DHT22;250;47.712;7.508;2022-08-19T09:47:50;22.20;49.00
528;DHT22;250;47.712;7.508;2022-08-19T09:50:18;22.20;49.30
528;DHT22;250;47.712;7.508;2022-08-19T09:52:45;22.30;49.70
528;DHT22;250;47.712;7.508;2022-08-19T09:55:13;22.30;49.70
528;DHT22;250;47.712;7.508;2022-08-19T09:57:41;22.30;49.70
528;DHT22;250;47.712;7.508;2022-08-19T10:00:09;22.30;50.20
528;DHT22;250;47.712;7.508;2022-08-19T10:02:38;22.30;50.00
528;DHT22;250;47.712;7.508;2022-08-19T10:05:05;22.30;49.20
528;DHT22;250;47.712;7.508;2022-08-19T10:08:01;22.30;48.30
528;DHT22;250;47.712;7.508;2022-08-19T10:10:29;22.20;48.30
528;DHT22;250;47.712;7.508;2022-08-19T10:12:56;22.20;48.20
528;DHT22;250;47.712;7.508;2022-08-19T10:15:22;22.30;48.60
528;DHT22;250;47.712;7.508;2022-08-19T10:17:51;22.20;48.50
528;DHT22;250;47.712;7.508;2022-08-19T10:20:18;22.20;49.50
528;DHT22;250;47.712;7.508;2022-08-19T10:22:45;22.30;50.00
528;DHT22;250;47.712;7.508;2022-08-19T10:25:12;22.30;49.50
528;DHT22;250;47.712;7.508;2022-08-19T10:27:42;22.30;49.50
528;DHT22;250;47.712;7.508;2022-08-19T10:30:10;22.30;49.80
528;DHT22;250;47.712;7.508;2022-08-19T10:32:37;22.40;49.60
528;DHT22;250;47.712;7.508;2022-08-19T10:35:06;22.40;49.00
528;DHT22;250;47.712;7.508;2022-08-19T10:37:34;22.40;48.00
528;DHT22;250;47.712;7.508;2022-08-19T10:40:01;22.40;48.50
528;DHT22;250;47.712;7.508;2022-08-19T10:42:28;22.40;48.80
528;DHT22;250;47.712;7.508;2022-08-19T10:44:56;22.40;49.10
528;DHT22;250;47.712;7.508;2022-08-19T10:47:24;22.40;48.70
528;DHT22;250;47.712;7.508;2022-08-19T10:49:51;22.30;50.20
528;DHT22;250;47.712;7.508;2022-08-19T10:52:38;22.30;49.40
528;DHT22;250;47.712;7.508;2022-08-19T10:55:07;22.40;48.50
528;DHT22;250;47.712;7.508;2022-08-19T10:57:51;22.50;47.10
528;DHT22;250;47.712;7.508;2022-08-19T11:00:19;22.50;47.10
528;DHT22;250;47.712;7.508;2022-08-19T11:02:46;22.60;46.30
528;DHT22;250;47.712;7.508;2022-08-19T11:05:13;22.70;44.40
528;DHT22;250;47.712;7.508;2022-08-19T11:07:42;22.60;43.40
528;DHT22;250;47.712;7.508;2022-08-19T11:10:12;22.60;43.40
528;DHT22;250;47.712;7.508;2022-08-19T11:12:40;22.60;43.80
528;DHT22;250;47.712;7.508;2022-08-19T11:15:09;22.60;43.00
528;DHT22;250;47.712;7.508;2022-08-19T11:17:37;22.70;44.40
528;DHT22;250;47.712;7.508;2022-08-19T11:20:08;22.80;45.20
528;DHT22;250;47.712;7.508;2022-08-19T11:22:36;22.80;45.60
528;DHT22;250;47.712;7.508;2022-08-19T11:25:05;22.90;44.40
528;DHT22;250;47.712;7.508;2022-08-19T11:27:32;23.00;43.40
528;DHT22;250;47.712;7.508;2022-08-19T11:29:59;23.00;41.70
528;DHT22;250;47.712;7.508;2022-08-19T11:32:29;22.90;41.70
528;DHT22;250;47.712;7.508;2022-08-19T11:34:56;22.90;41.70
528;DHT22;250;47.712;7.508;2022-08-19T11:37:23;22.90;41.20
528;DHT22;250;47.712;7.508;2022-08-19T11:39:50;23.00;41.70
528;DHT22;250;47.712;7.508;2022-08-19T11:42:18;23.10;41.70
528;DHT22;250;47.712;7.508;2022-08-19T11:45:03;23.10;40.70
528;DHT22;250;47.712;7.508;2022-08-19T11:47:30;23.10;39.60
528;DHT22;250;47.712;7.508;2022-08-19T11:49:57;23.20;40.30
528;DHT22;250;47.712;7.508;2022-08-19T11:52:25;23.20;40.00
528;DHT22;250;47.712;7.508;2022-08-19T11:54:52;23.30;40.90
528;DHT22;250;47.712;7.508;2022-08-19T11:57:21;23.30;39.60
528;DHT22;250;47.712;7.508;2022-08-19T11:59:49;23.30;36.90
528;DHT22;250;47.712;7.508;2022-08-19T12:02:16;23.40;37.40
528;DHT22;250;47.712;7.508;2022-08-19T12:04:44;23.40;36.70
528;DHT22;250;47.712;7.508;2022-08-19T12:07:11;23.40;36.70
528;DHT22;250;47.712;7.508;2022-08-19T12:09:38;23.50;37.10
528;DHT22;250;47.712;7.508;2022-08-19T12:12:06;23.50;37.70
528;DHT22;250;47.712;7.508;2022-08-19T12:14:35;23.50;36.50
528;DHT22;250;47.712;7.508;2022-08-19T12:17:03;23.40;36.40
528;DHT22;250;47.712;7.508;2022-08-19T12:19:33;23.30;36.90
528;DHT22;250;47.712;7.508;2022-08-19T12:22:01;23.30;37.60
528;DHT22;250;47.712;7.508;2022-08-19T12:24:30;23.30;39.70
528;DHT22;250;47.712;7.508;2022-08-19T12:26:58;23.20;41.80
528;DHT22;250;47.712;7.508;2022-08-19T12:29:27;23.20;41.90
528;DHT22;250;47.712;7.508;2022-08-19T12:31:57;23.10;44.40
528;DHT22;250;47.712;7.508;2022-08-19T12:34:28;23.10;44.00
528;DHT22;250;47.712;7.508;2022-08-19T12:36:56;23.10;44.80
528;DHT22;250;47.712;7.508;2022-08-19T12:39:24;23.10;44.90
528;DHT22;250;47.712;7.508;2022-08-19T12:41:51;23.00;46.60
528;DHT22;250;47.712;7.508;2022-08-19T12:44:18;23.00;46.60
528;DHT22;250;47.712;7.508;2022-08-19T12:46:46;23.10;47.50
528;DHT22;250;47.712;7.508;2022-08-19T12:49:16;23.10;49.10
528;DHT22;250;47.712;7.508;2022-08-19T12:51:43;23.00;50.20
528;DHT22;250;47.712;7.508;2022-08-19T12:54:10;22.90;50.80
528;DHT22;250;47.712;7.508;2022-08-19T12:56:37;22.90;49.60
528;DHT22;250;47.712;7.508;2022-08-19T12:59:04;22.80;48.60
528;DHT22;250;47.712;7.508;2022-08-19T13:01:33;22.60;49.70
528;DHT22;250;47.712;7.508;2022-08-19T13:04:00;22.60;51.10
528;DHT22;250;47.712;7.508;2022-08-19T13:06:29;22.50;51.00
528;DHT22;250;47.712;7.508;2022-08-19T13:08:56;22.50;51.40
528;DHT22;250;47.712;7.508;2022-08-19T13:11:23;22.50;52.60
528;DHT22;250;47.712;7.508;2022-08-19T13:13:51;22.50;53.10
528;DHT22;250;47.712;7.508;2022-08-19T13:16:20;22.50;52.00
528;DHT22;250;47.712;7.508;2022-08-19T13:18:48;22.50;51.70
528;DHT22;250;47.712;7.508;2022-08-19T13:21:17;22.50;52.70
528;DHT22;250;47.712;7.508;2022-08-19T13:23:47;22.50;51.00
528;DHT22;250;47.712;7.508;2022-08-19T13:26:15;22.50;51.90
528;DHT22;250;47.712;7.508;2022-08-19T13:28:43;22.50;52.60
528;DHT22;250;47.712;7.508;2022-08-19T13:31:30;22.50;52.20
528;DHT22;250;47.712;7.508;2022-08-19T13:34:15;22.40;53.40
528;DHT22;250;47.712;7.508;2022-08-19T13:36:42;22.50;54.20
528;DHT22;250;47.712;7.508;2022-08-19T13:39:11;22.50;54.30
528;DHT22;250;47.712;7.508;2022-08-19T13:41:43;22.50;54.10
528;DHT22;250;47.712;7.508;2022-08-19T13:44:13;22.50;55.50
528;DHT22;250;47.712;7.508;2022-08-19T13:46:40;22.50;54.90
528;DHT22;250;47.712;7.508;2022-08-19T13:49:10;22.50;55.20
528;DHT22;250;47.712;7.508;2022-08-19T13:51:38;22.50;54.70
528;DHT22;250;47.712;7.508;2022-08-19T13:54:06;22.60;55.70
528;DHT22;250;47.712;7.508;2022-08-19T13:56:39;22.60;54.80
528;DHT22;250;47.712;7.508;2022-08-19T13:59:06;22.60;55.90
528;DHT22;250;47.712;7.508;2022-08-19T14:01:33;22.70;55.30
528;DHT22;250;47.712;7.508;2022-08-19T14:04:00;22.70;53.20
528;DHT22;250;47.712;7.508;2022-08-19T14:06:27;22.70;53.00
528;DHT22;250;47.712;7.508;2022-08-19T14:08:54;22.70;53.40
528;DHT22;250;47.712;7.508;2022-08-19T14:11:21;22.70;53.20
528;DHT22;250;47.712;7.508;2022-08-19T14:13:50;22.70;53.50
528;DHT22;250;47.712;7.508;2022-08-19T14:16:17;22.80;53.40
528;DHT22;250;47.712;7.508;2022-08-19T14:18:44;22.80;52.40
528;DHT22;250;47.712;7.508;2022-08-19T14:21:16;22.80;51.50
528;DHT22;250;47.712;7.508;2022-08-19T14:23:44;22.80;53.20
528;DHT22;250;47.712;7.508;2022-08-19T14:26:14;22.80;51.30
528;DHT22;250;47.712;7.508;2022-08-19T14:28:42;22.80;51.00
528;DHT22;250;47.712;7.508;2022-08-19T14:31:12;22.80;51.20
528;DHT22;250;47.712;7.508;2022-08-19T14:33:40;22.70;52.00
528;DHT22;250;47.712;7.508;2022-08-19T14:36:08;22.70;52.20
528;DHT22;250;47.712;7.508;2022-08-19T14:38:35;22.60;52.70
528;DHT22;250;47.712;7.508;2022-08-19T14:41:07;22.60;49.80
528;DHT22;250;47.712;7.508;2022-08-19T14:43:34;22.60;48.90
528;DHT22;250;47.712;7.508;2022-08-19T14:46:01;22.60;48.60
528;DHT22;250;47.712;7.508;2022-08-19T14:48:30;22.60;48.80
528;DHT22;250;47.712;7.508;2022-08-19T14:50:57;22.60;49.90
528;DHT22;250;47.712;7.508;2022-08-19T14:53:24;22.50;50.80
528;DHT22;250;47.712;7.508;2022-08-19T14:55:51;22.60;50.30
528;DHT22;250;47.712;7.508;2022-08-19T14:58:18;22.60;50.40
528;DHT22;250;47.712;7.508;2022-08-19T15:00:45;22.60;50.00
528;DHT22;250;47.712;7.508;2022-08-19T15:03:13;22.60;50.00
528;DHT22;250;47.712;7.508;2022-08-19T15:05:41;22.60;50.70
528;DHT22;250;47.712;7.508;2022-08-19T15:08:08;22.60;51.10
528;DHT22;250;47.712;7.508;2022-08-19T15:10:35;22.60;50.30
528;DHT22;250;47.712;7.508;2022-08-19T15:13:02;22.60;49.90
528;DHT22;250;47.712;7.508;2022-08-19T15:15:29;22.60;50.60
528;DHT22;250;47.712;7.508;2022-08-19T15:17:56;22.60;50.40
528;DHT22;250;47.712;7.508;2022-08-19T15:20:28;22.60;50.20
528;DHT22;250;47.712;7.508;2022-08-19T15:22:57;22.60;50.30
528;DHT22;250;47.712;7.508;2022-08-19T15:25:25;22.60;50.70
528;DHT22;250;47.712;7.508;2022-08-19T15:27:53;22.60;50.30
528;DHT22;250;47.712;7.508;2022-08-19T15:30:24;22.70;50.00
528;DHT22;250;47.712;7.508;2022-08-19T15:32:52;22.60;50.50
528;DHT22;250;47.712;7.508;2022-08-19T15:35:21;22.60;50.50
528;DHT22;250;47.712;7.508;2022-08-19T15:37:49;22.70;49.00
528;DHT22;250;47.712;7.508;2022-08-19T15:40:19;22.70;49.30
528;DHT22;250;47.712;7.508;2022-08-19T15:42:46;22.70;48.50
528;DHT22;250;47.712;7.508;2022-08-19T15:45:16;22.70;48.50
528;DHT22;250;47.712;7.508;2022-08-19T15:47:43;22.70;48.50
528;DHT22;250;47.712;7.508;2022-08-19T15:50:13;22.70;47.90
528;DHT22;250;47.712;7.508;2022-08-19T15:52:45;22.70;48.10
528;DHT22;250;47.712;7.508;2022-08-19T15:55:12;22.70;47.70
528;DHT22;250;47.712;7.508;2022-08-19T15:57:41;22.70;47.10
528;DHT22;250;47.712;7.508;2022-08-19T16:00:25;22.70;47.30
528;DHT22;250;47.712;7.508;2022-08-19T16:03:13;22.70;46.70
528;DHT22;250;47.712;7.508;2022-08-19T16:05:58;22.70;46.30
528;DHT22;250;47.712;7.508;2022-08-19T16:08:42;22.70;45.30
528;DHT22;250;47.712;7.508;2022-08-19T16:11:10;22.70;45.30
528;DHT22;250;47.712;7.508;2022-08-19T16:13:40;22.70;44.20
528;DHT22;250;47.712;7.508;2022-08-19T16:16:07;22.70;44.40
528;DHT22;250;47.712;7.508;2022-08-19T16:18:34;22.70;44.40
528;DHT22;250;47.712;7.508;2022-08-19T16:21:03;22.70;44.30
528;DHT22;250;47.712;7.508;2022-08-19T16:23:30;22.70;44.40
528;DHT22;250;47.712;7.508;2022-08-19T16:25:57;22.70;44.60
528;DHT22;250;47.712;7.508;2022-08-19T16:28:24;22.70;44.40
528;DHT22;250;47.712;7.508;2022-08-19T16:30:53;22.70;44.40
528;DHT22;250;47.712;7.508;2022-08-19T16:33:20;22.80;44.60
528;DHT22;250;47.712;7.508;2022-08-19T16:35:47;22.80;44.20
528;DHT22;250;47.712;7.508;2022-08-19T16:38:14;22.80;45.00
528;DHT22;250;47.712;7.508;2022-08-19T16:40:41;22.80;44.70
528;DHT22;250;47.712;7.508;2022-08-19T16:43:08;22.80;44.70
528;DHT22;250;47.712;7.508;2022-08-19T16:45:35;22.80;44.90